createdAt,value
2022-08-26T00:02:07.183Z,4.97
2022-08-26T00:04:35.316Z,5.53
2022-08-26T00:07:03.214Z,6.45
2022-08-26T00:09:38.925Z,5.68
2022-08-26T00:12:09.319Z,6.68
2022-08-26T00:14:41.915Z,6.03
2022-08-26T00:17:10.228Z,5.75
2022-08-26T00:19:38.472Z,5.30
2022-08-26T00:22:06.819Z,5.95
2022-08-26T00:24:34.760Z,5.78
2022-08-26T00:27:02.708Z,5.72
2022-08-26T00:29:32.013Z,6.63
2022-08-26T00:32:05.138Z,5.45
2022-08-26T00:34:33.153Z,6.05
2022-08-26T00:37:01.047Z,5.57
2022-08-26T00:39:28.934Z,4.72
2022-08-26T00:41:57.158Z,5.47
2022-08-26T00:44:25.083Z,5.88
2022-08-26T00:46:58.269Z,5.40
2022-08-26T00:49:35.827Z,5.93
2022-08-26T00:52:09.674Z,5.70
2022-08-26T00:54:46.582Z,5.65
2022-08-26T00:57:17.522Z,5.70
2022-08-26T00:59:47.717Z,5.95
2022-08-26T01:02:20.842Z,5.80
2022-08-26T01:04:55.656Z,5.63
2022-08-26T01:07:26.118Z,6.00
2022-08-26T01:09:54.507Z,5.57
2022-08-26T01:12:24.730Z,5.82
2022-08-26T01:14:53.495Z,5.88
2022-08-26T01:17:21.500Z,5.72
2022-08-26T01:19:55.341Z,5.72
2022-08-26T01:22:28.656Z,5.68
2022-08-26T01:24:59.635Z,5.72
2022-08-26T01:27:32.641Z,6.25
2022-08-26T01:30:02.586Z,5.07
2022-08-26T01:32:32.699Z,5.80
2022-08-26T01:35:00.670Z,5.50
2022-08-26T01:37:34.040Z,5.70
2022-08-26T01:40:04.049Z,5.47
2022-08-26T01:42:32.031Z,5.85
2022-08-26T01:45:05.132Z,5.95
2022-08-26T01:47:35.386Z,5.40
2022-08-26T01:50:08.734Z,5.95
2022-08-26T01:52:40.932Z,5.85
2022-08-26T01:55:14.558Z,5.97
2022-08-26T01:58:02.193Z,5.80
2022-08-26T02:00:30.706Z,5.43
2022-08-26T02:03:13.223Z,6.18
2022-08-26T02:05:41.209Z,5.55
2022-08-26T02:08:11.862Z,6.18
2022-08-26T02:10:43.233Z,6.07
2022-08-26T02:13:12.495Z,6.43
2022-08-26T02:15:43.855Z,6.25
2022-08-26T02:18:13.998Z,6.00
2022-08-26T02:20:42.163Z,6.18
2022-08-26T02:23:10.067Z,5.60
2022-08-26T02:25:48.303Z,6.80
2022-08-26T02:28:17.206Z,5.38
2022-08-26T02:30:48.900Z,6.53
2022-08-26T02:33:16.834Z,5.78
2022-08-26T02:35:45.332Z,5.97
2022-08-26T02:38:14.677Z,6.25
2022-08-26T02:40:43.830Z,6.40
2022-08-26T02:43:13.407Z,6.38
2022-08-26T02:45:42.914Z,6.05
2022-08-26T02:48:13.805Z,6.88
2022-08-26T02:50:42.348Z,6.85
2022-08-26T02:53:12.151Z,6.45
2022-08-26T02:55:42.245Z,6.97
2022-08-26T02:58:11.223Z,7.07
2022-08-26T03:00:53.508Z,5.95
2022-08-26T03:03:22.409Z,6.25
2022-08-26T03:05:51.503Z,7.28
2022-08-26T03:08:19.915Z,6.13
2022-08-26T03:10:48.437Z,6.05
2022-08-26T03:13:18.112Z,6.45
2022-08-26T03:15:47.618Z,6.10
2022-08-26T03:18:16.175Z,6.10
2022-08-26T03:20:44.143Z,6.30
2022-08-26T03:23:12.577Z,6.30
2022-08-26T03:25:40.593Z,6.43
2022-08-26T03:28:09.680Z,5.93
2022-08-26T03:30:45.099Z,6.95
2022-08-26T03:33:15.840Z,6.40
2022-08-26T03:35:45.468Z,6.20
2022-08-26T03:38:13.370Z,6.13
2022-08-26T03:40:42.629Z,6.10
2022-08-26T03:43:13.638Z,6.43
2022-08-26T03:45:41.878Z,6.05
2022-08-26T03:48:11.268Z,6.05
2022-08-26T03:50:41.431Z,6.38
2022-08-26T03:53:13.058Z,6.18
2022-08-26T03:55:43.161Z,6.40
2022-08-26T03:58:11.908Z,7.15
2022-08-26T04:00:39.880Z,6.82
2022-08-26T04:03:10.045Z,6.78
2022-08-26T04:05:38.907Z,6.55
2022-08-26T04:08:08.357Z,6.97
2022-08-26T04:10:38.950Z,7.30
2022-08-26T04:13:07.245Z,7.38
2022-08-26T04:15:35.411Z,6.70
2022-08-26T04:18:03.310Z,6.82
2022-08-26T04:20:31.920Z,6.72
2022-08-26T04:22:59.800Z,7.15
2022-08-26T04:25:29.433Z,6.38
2022-08-26T04:27:57.589Z,6.15
2022-08-26T04:30:25.566Z,6.43
2022-08-26T04:32:53.484Z,7.03
2022-08-26T04:35:25.710Z,7.40
2022-08-26T04:37:54.346Z,6.88
2022-08-26T04:40:22.298Z,6.75
2022-08-26T04:42:51.539Z,6.78
2022-08-26T04:45:22.693Z,7.00
2022-08-26T04:47:54.615Z,7.00
2022-08-26T04:50:23.592Z,6.70
2022-08-26T04:52:51.472Z,7.43
2022-08-26T04:55:19.406Z,7.28
2022-08-26T04:57:47.882Z,6.72
2022-08-26T05:00:17.783Z,7.05
2022-08-26T05:02:46.034Z,7.22
2022-08-26T05:05:14.219Z,7.45
2022-08-26T05:07:42.374Z,6.93
2022-08-26T05:10:11.363Z,6.53
2022-08-26T05:12:39.250Z,7.00
2022-08-26T05:15:10.343Z,6.82
2022-08-26T05:17:39.678Z,6.97
2022-08-26T05:20:08.929Z,6.93
2022-08-26T05:22:36.776Z,6.47
2022-08-26T05:25:05.264Z,6.35
2022-08-26T05:27:33.183Z,6.63
2022-08-26T05:30:01.511Z,6.63
2022-08-26T05:32:29.445Z,7.07
2022-08-26T05:34:59.450Z,7.07
2022-08-26T05:37:28.638Z,6.47
2022-08-26T05:39:57.329Z,6.05
2022-08-26T05:42:25.919Z,6.25
2022-08-26T05:44:55.986Z,6.90
2022-08-26T05:47:24.558Z,6.75
2022-08-26T05:49:52.594Z,7.55
2022-08-26T05:52:24.702Z,6.88
2022-08-26T05:54:54.242Z,6.95
2022-08-26T05:57:23.218Z,7.53
2022-08-26T05:59:51.594Z,6.82
2022-08-26T06:02:19.629Z,7.68
2022-08-26T06:04:47.530Z,7.38
2022-08-26T06:07:17.008Z,7.65
2022-08-26T06:09:47.727Z,6.78
2022-08-26T06:12:15.753Z,6.38
2022-08-26T06:14:46.508Z,5.78
2022-08-26T06:17:16.880Z,6.22
2022-08-26T06:19:45.649Z,6.00
2022-08-26T06:22:27.486Z,5.95
2022-08-26T06:25:14.050Z,5.50
2022-08-26T06:27:41.906Z,5.72
2022-08-26T06:30:11.071Z,5.97
2022-08-26T06:32:40.371Z,5.57
2022-08-26T06:35:12.185Z,5.25
2022-08-26T06:37:40.350Z,5.18
2022-08-26T06:40:12.121Z,5.10
2022-08-26T06:42:40.286Z,4.78
2022-08-26T06:45:09.176Z,5.20
2022-08-26T06:47:37.253Z,4.55
2022-08-26T06:50:05.523Z,4.43
2022-08-26T06:52:33.490Z,4.05
2022-08-26T06:55:02.715Z,4.25
2022-08-26T06:57:32.915Z,4.32
2022-08-26T07:00:03.219Z,4.72
2022-08-26T07:02:32.035Z,5.05
2022-08-26T07:04:59.920Z,4.65
2022-08-26T07:07:27.795Z,5.55
2022-08-26T07:09:56.437Z,5.45
2022-08-26T07:12:26.034Z,4.65
2022-08-26T07:14:55.675Z,4.85
2022-08-26T07:17:25.558Z,5.25
2022-08-26T07:19:53.600Z,4.50
2022-08-26T07:22:21.514Z,4.30
2022-08-26T07:24:49.555Z,4.53
2022-08-26T07:27:18.470Z,4.10
2022-08-26T07:29:46.839Z,4.00
2022-08-26T07:32:17.230Z,4.43
2022-08-26T07:34:46.718Z,4.25
2022-08-26T07:37:14.767Z,3.83
2022-08-26T07:39:44.258Z,3.38
2022-08-26T07:42:14.138Z,3.88
2022-08-26T07:44:43.300Z,3.88
2022-08-26T07:47:25.255Z,4.00
2022-08-26T07:49:57.293Z,4.05
2022-08-26T07:52:27.441Z,4.03
2022-08-26T07:54:56.586Z,3.72
2022-08-26T07:57:24.634Z,3.40
2022-08-26T07:59:54.933Z,3.53
2022-08-26T08:02:23.635Z,3.33
2022-08-26T08:04:52.256Z,3.20
2022-08-26T08:07:38.256Z,3.50
2022-08-26T08:10:11.446Z,3.05
2022-08-26T08:12:39.741Z,3.47
2022-08-26T08:15:09.866Z,3.90
2022-08-26T08:17:38.110Z,4.05
2022-08-26T08:20:07.711Z,3.70
2022-08-26T08:22:36.970Z,3.55
2022-08-26T08:25:06.246Z,3.67
2022-08-26T08:27:36.346Z,3.63
2022-08-26T08:30:06.386Z,3.47
2022-08-26T08:32:35.363Z,3.10
2022-08-26T08:35:10.727Z,3.25
2022-08-26T08:37:40.996Z,4.10
2022-08-26T08:40:10.433Z,3.63
2022-08-26T08:42:46.953Z,4.43
2022-08-26T08:45:20.773Z,4.60
2022-08-26T08:47:54.749Z,4.20
2022-08-26T08:50:27.750Z,4.47
2022-08-26T08:53:08.935Z,4.13
2022-08-26T08:55:47.883Z,4.30
2022-08-26T08:58:20.580Z,4.03
2022-08-26T09:00:55.027Z,4.35
2022-08-26T09:03:36.708Z,4.55
2022-08-26T09:06:16.797Z,4.30
2022-08-26T09:08:50.517Z,4.75
2022-08-26T09:11:20.152Z,4.57
2022-08-26T09:13:50.662Z,4.50
2022-08-26T09:16:23.079Z,5.05
2022-08-26T09:19:04.756Z,5.50
2022-08-26T09:21:33.613Z,5.22
2022-08-26T09:24:04.916Z,5.22
2022-08-26T09:26:45.476Z,4.20
2022-08-26T09:29:22.348Z,5.07
2022-08-26T09:31:51.270Z,4.50
2022-08-26T09:34:22.366Z,5.35
2022-08-26T09:36:51.777Z,4.97
2022-08-26T09:39:33.522Z,5.90
2022-08-26T09:42:08.420Z,5.40
2022-08-26T09:44:54.176Z,5.00
2022-08-26T09:47:26.198Z,6.00
2022-08-26T09:50:09.709Z,5.85
2022-08-26T09:52:38.077Z,5.95
2022-08-26T09:55:15.083Z,5.50
2022-08-26T09:57:49.497Z,5.95
2022-08-26T10:00:34.725Z,6.55
2022-08-26T10:03:10.728Z,5.72
2022-08-26T10:05:43.684Z,6.38
2022-08-26T10:08:24.312Z,7.03
2022-08-26T10:10:55.291Z,6.90
2022-08-26T10:13:27.992Z,6.40
2022-08-26T10:16:07.066Z,6.80
2022-08-26T10:18:43.025Z,5.75
2022-08-26T10:21:14.918Z,6.20
2022-08-26T10:23:51.383Z,6.18
2022-08-26T10:26:26.272Z,6.70
2022-08-26T10:29:01.271Z,5.93
2022-08-26T10:31:38.239Z,6.00
2022-08-26T10:34:09.298Z,7.03
2022-08-26T10:37:15.538Z,6.30
2022-08-26T10:39:46.008Z,6.50
2022-08-26T10:42:23.028Z,6.15
2022-08-26T10:44:57.082Z,6.97
2022-08-26T10:47:33.726Z,6.88
2022-08-26T10:50:03.705Z,6.97
2022-08-26T10:52:42.246Z,6.03
2022-08-26T10:55:17.715Z,6.07
2022-08-26T10:57:56.117Z,6.20
2022-08-26T11:00:47.001Z,7.75
2022-08-26T11:03:32.486Z,6.47
2022-08-26T11:06:23.652Z,5.28
2022-08-26T11:08:53.687Z,6.70
2022-08-26T11:11:47.353Z,5.40
2022-08-26T11:14:41.153Z,6.05
2022-08-26T11:17:56.901Z,5.03
2022-08-26T11:20:36.570Z,5.32
2022-08-26T11:23:38.592Z,5.78
2022-08-26T11:26:30.056Z,5.35
2022-08-26T11:29:04.325Z,5.57
2022-08-26T11:31:56.642Z,5.75
2022-08-26T11:34:55.079Z,5.40
2022-08-26T11:37:32.869Z,5.20
2022-08-26T11:40:03.898Z,5.70
2022-08-26T11:42:39.486Z,6.07
2022-08-26T11:45:20.208Z,5.32
2022-08-26T11:47:49.815Z,6.43
2022-08-26T11:50:21.023Z,6.32
2022-08-26T11:52:54.200Z,5.30
2022-08-26T11:55:24.049Z,6.13
2022-08-26T11:57:55.437Z,5.65
2022-08-26T12:00:26.397Z,5.82
2022-08-26T12:02:56.532Z,4.90
2022-08-26T12:05:30.925Z,5.40
2022-08-26T12:08:04.108Z,5.20
2022-08-26T12:10:33.868Z,5.07
2022-08-26T12:13:03.764Z,4.65
2022-08-26T12:15:34.156Z,4.90
2022-08-26T12:18:28.681Z,5.68
2022-08-26T12:21:00.471Z,4.80
2022-08-26T12:23:42.242Z,4.57
2022-08-26T12:26:22.418Z,5.07
2022-08-26T12:28:54.702Z,5.22
2022-08-26T12:31:31.159Z,4.70
2022-08-26T12:34:02.024Z,4.75
2022-08-26T12:36:33.090Z,4.85
2022-08-26T12:39:09.406Z,4.57
2022-08-26T12:41:50.005Z,4.93
2022-08-26T12:44:40.493Z,5.03
2022-08-26T12:47:11.814Z,5.45
2022-08-26T12:49:43.622Z,4.82
2022-08-26T12:52:29.851Z,5.45
2022-08-26T12:54:59.890Z,5.05
2022-08-26T12:57:31.208Z,5.70
2022-08-26T13:00:39.260Z,5.25
2022-08-26T13:03:38.299Z,5.55
2022-08-26T13:08:45.305Z,4.80
2022-08-26T13:11:18.430Z,4.35
2022-08-26T13:13:47.156Z,4.72
2022-08-26T13:16:15.344Z,4.82
2022-08-26T13:18:43.331Z,4.40
2022-08-26T13:21:17.216Z,4.43
2022-08-26T13:23:45.079Z,4.10
2022-08-26T13:26:13.030Z,4.75
2022-08-26T13:28:42.133Z,4.65
2022-08-26T13:31:11.139Z,4.30
2022-08-26T13:33:39.793Z,5.00
2022-08-26T13:36:08.653Z,4.65
2022-08-26T13:38:37.943Z,5.25
2022-08-26T13:41:07.220Z,5.05
2022-08-26T13:43:35.601Z,5.07
2022-08-26T13:46:03.697Z,5.72
2022-08-26T13:48:33.859Z,4.65
2022-08-26T13:51:02.750Z,4.63
2022-08-26T13:53:37.322Z,4.40
2022-08-26T13:56:07.000Z,5.60
2022-08-26T13:58:38.339Z,5.40
2022-08-26T14:01:06.366Z,5.05
2022-08-26T14:03:34.336Z,5.28
2022-08-26T14:06:02.245Z,4.75
2022-08-26T14:08:30.702Z,4.10
2022-08-26T14:11:00.153Z,5.03
2022-08-26T14:13:28.389Z,5.07
2022-08-26T14:15:58.697Z,5.22
2022-08-26T14:18:31.260Z,5.00
2022-08-26T14:20:59.834Z,4.68
2022-08-26T14:23:28.436Z,4.80
2022-08-26T14:25:56.309Z,5.30
2022-08-26T14:30:59.529Z,6.40
2022-08-26T14:33:32.425Z,5.70
2022-08-26T14:36:14.582Z,5.78
2022-08-26T14:38:42.472Z,6.38
2022-08-26T14:41:11.033Z,5.32
2022-08-26T14:43:43.313Z,6.68
2022-08-26T14:46:11.224Z,6.18
2022-08-26T14:48:39.176Z,6.00
2022-08-26T14:51:07.127Z,6.20
2022-08-26T14:53:52.463Z,6.10
2022-08-26T14:56:20.508Z,6.07
2022-08-26T14:58:49.741Z,7.57
2022-08-26T15:01:17.752Z,6.47
2022-08-26T15:03:45.855Z,5.82
2022-08-26T15:06:16.410Z,7.45
2022-08-26T15:08:44.333Z,5.60
2022-08-26T15:11:12.235Z,5.32
2022-08-26T15:13:40.110Z,6.28
2022-08-26T15:16:09.474Z,5.45
2022-08-26T15:18:37.417Z,5.75
2022-08-26T15:21:06.506Z,5.47
2022-08-26T15:23:34.623Z,5.18
2022-08-26T15:26:03.064Z,5.60
2022-08-26T15:28:31.325Z,5.47
2022-08-26T15:31:00.556Z,6.93
2022-08-26T15:33:29.871Z,6.50
2022-08-26T15:36:00.415Z,5.78
2022-08-26T15:38:30.950Z,5.90
2022-08-26T15:41:02.867Z,5.60
2022-08-26T15:43:31.286Z,6.22
2022-08-26T15:45:59.691Z,5.82
2022-08-26T15:48:29.350Z,5.22
2022-08-26T15:50:59.555Z,4.80
2022-08-26T15:53:28.427Z,4.55
2022-08-26T15:55:57.661Z,3.70
2022-08-26T15:58:26.415Z,2.92
2022-08-26T16:00:55.294Z,3.83
2022-08-26T16:03:23.520Z,3.15
2022-08-26T16:05:53.411Z,3.50
2022-08-26T16:08:22.302Z,4.00
2022-08-26T16:10:51.260Z,3.50
2022-08-26T16:13:20.626Z,3.08
2022-08-26T16:15:48.794Z,3.50
2022-08-26T16:18:16.859Z,3.50
2022-08-26T16:20:51.603Z,2.85
2022-08-26T16:23:44.302Z,3.65
2022-08-26T16:26:15.084Z,3.65
2022-08-26T16:28:43.532Z,3.40
2022-08-26T16:31:11.917Z,3.80
2022-08-26T16:33:39.916Z,3.80
2022-08-26T16:36:09.320Z,4.65
2022-08-26T16:38:39.125Z,5.05
2022-08-26T16:41:09.204Z,5.55
2022-08-26T16:43:37.608Z,5.50
2022-08-26T16:46:07.317Z,6.20
2022-08-26T16:48:35.644Z,6.53
2022-08-26T16:51:03.650Z,6.40
2022-08-26T16:53:31.513Z,7.55
2022-08-26T16:55:59.368Z,7.70
2022-08-26T16:58:28.607Z,6.60
2022-08-26T17:00:57.703Z,7.32
2022-08-26T17:03:25.649Z,9.63
2022-08-26T17:05:53.990Z,8.65
2022-08-26T17:08:28.356Z,8.98
2022-08-26T17:10:57.009Z,8.50
2022-08-26T17:13:35.734Z,9.65
2022-08-26T17:16:07.347Z,7.25
2022-08-26T17:18:36.239Z,8.52
2022-08-26T17:21:06.625Z,9.00
2022-08-26T17:23:34.815Z,8.35
2022-08-26T17:26:02.888Z,7.60
2022-08-26T17:28:30.788Z,6.88
2022-08-26T17:30:59.415Z,6.75
2022-08-26T17:33:29.585Z,7.13
2022-08-26T17:35:57.725Z,6.20
2022-08-26T17:38:29.080Z,5.30
2022-08-26T17:40:57.345Z,5.20
2022-08-26T17:43:26.634Z,4.93
2022-08-26T17:45:58.938Z,4.53
2022-08-26T17:48:37.621Z,4.50
2022-08-26T17:51:08.650Z,3.88
2022-08-26T17:53:37.183Z,4.50
2022-08-26T17:56:08.496Z,3.67
2022-08-26T17:58:37.228Z,3.67
2022-08-26T18:01:06.217Z,4.25
2022-08-26T18:03:36.123Z,4.07
2022-08-26T18:06:08.606Z,3.83
2022-08-26T18:08:36.819Z,4.57
2022-08-26T18:11:08.430Z,4.18
2022-08-26T18:13:36.322Z,5.13
2022-08-26T18:16:06.110Z,4.95
2022-08-26T18:18:34.179Z,5.28
2022-08-26T18:21:04.399Z,4.50
2022-08-26T18:23:32.265Z,4.40
2022-08-26T18:26:00.115Z,5.07
2022-08-26T18:28:28.050Z,5.43
2022-08-26T18:30:57.464Z,4.85
2022-08-26T18:33:25.651Z,4.18
2022-08-26T18:35:53.912Z,3.63
2022-08-26T18:38:23.117Z,3.80
2022-08-26T18:40:56.282Z,3.92
2022-08-26T18:43:24.190Z,4.00
2022-08-26T18:46:02.519Z,4.38
2022-08-26T18:48:30.487Z,4.28
2022-08-26T18:51:00.402Z,4.63
2022-08-26T18:53:30.783Z,4.20
2022-08-26T18:55:59.056Z,4.47
2022-08-26T18:58:26.927Z,5.13
2022-08-26T19:00:54.817Z,5.18
2022-08-26T19:03:22.674Z,5.43
2022-08-26T19:05:50.678Z,5.30
2022-08-26T19:08:18.587Z,5.88
2022-08-26T19:10:47.944Z,5.07
2022-08-26T19:13:16.557Z,4.68
2022-08-26T19:15:46.379Z,4.50
2022-08-26T19:18:15.898Z,4.93
2022-08-26T19:20:46.762Z,4.75
2022-08-26T19:23:31.074Z,4.75
2022-08-26T19:26:05.030Z,5.78
2022-08-26T19:28:33.311Z,5.30
2022-08-26T19:31:02.611Z,5.10
2022-08-26T19:33:31.018Z,4.40
2022-08-26T19:35:58.996Z,5.22
2022-08-26T19:38:27.840Z,5.20
2022-08-26T19:40:55.791Z,5.43
2022-08-26T19:43:25.436Z,4.80
2022-08-26T19:45:53.333Z,4.85
2022-08-26T19:48:21.280Z,4.88
2022-08-26T19:50:49.474Z,5.50
2022-08-26T19:53:17.408Z,5.60
2022-08-26T19:55:45.272Z,5.00
2022-08-26T19:58:13.133Z,4.57
2022-08-26T20:00:42.779Z,5.53
2022-08-26T20:03:14.864Z,5.03
2022-08-26T20:05:44.073Z,5.28
2022-08-26T20:08:22.203Z,5.60
2022-08-26T20:10:51.132Z,5.63
2022-08-26T20:13:19.209Z,5.13
2022-08-26T20:15:48.437Z,6.00
2022-08-26T20:18:30.266Z,5.80
2022-08-26T20:21:15.565Z,5.20
2022-08-26T20:23:43.847Z,5.93
2022-08-26T20:26:11.829Z,5.63
2022-08-26T20:28:39.719Z,5.88
2022-08-26T20:31:09.569Z,6.13
2022-08-26T20:33:46.277Z,6.03
2022-08-26T20:36:14.926Z,5.32
2022-08-26T20:38:43.019Z,5.85
2022-08-26T20:41:11.795Z,6.20
2022-08-26T20:43:39.672Z,6.22
2022-08-26T20:46:17.287Z,5.88
2022-08-26T20:48:46.947Z,5.70
2022-08-26T20:51:14.875Z,5.72
2022-08-26T20:53:44.139Z,6.03
2022-08-26T20:56:14.148Z,5.68
2022-08-26T20:58:42.910Z,5.82
2022-08-26T21:01:19.210Z,6.07
2022-08-26T21:03:47.865Z,5.90
2022-08-26T21:06:15.859Z,5.65
2022-08-26T21:08:44.925Z,5.85
2022-08-26T21:11:13.220Z,6.03
2022-08-26T21:14:01.494Z,5.13
2022-08-26T21:16:30.878Z,5.60
2022-08-26T21:19:00.385Z,5.18
2022-08-26T21:21:28.808Z,5.65
2022-08-26T21:23:57.180Z,5.60
2022-08-26T21:26:25.488Z,6.35
2022-08-26T21:28:53.639Z,5.88
2022-08-26T21:31:24.001Z,5.75
2022-08-26T21:33:54.131Z,6.57
2022-08-26T21:36:22.009Z,6.65
2022-08-26T21:38:49.913Z,6.35
2022-08-26T21:41:23.153Z,6.47
2022-08-26T21:43:53.495Z,7.00
2022-08-26T21:46:23.581Z,6.68
2022-08-26T21:48:56.677Z,7.18
2022-08-26T21:51:26.620Z,6.68
2022-08-26T21:53:55.944Z,6.80
2022-08-26T21:56:26.159Z,6.47
2022-08-26T21:58:55.577Z,7.07
2022-08-26T22:01:25.141Z,7.00
2022-08-26T22:03:53.528Z,7.22
2022-08-26T22:06:26.804Z,6.75
2022-08-26T22:08:55.824Z,7.90
2022-08-26T22:11:25.805Z,7.63
2022-08-26T22:13:55.180Z,7.72
2022-08-26T22:16:23.329Z,8.93
2022-08-26T22:18:51.659Z,9.93
2022-08-26T22:21:23.728Z,8.90
2022-08-26T22:23:51.723Z,8.55
2022-08-26T22:26:26.254Z,8.13
2022-08-26T22:28:55.589Z,6.80
2022-08-26T22:31:37.147Z,8.50
2022-08-26T22:34:08.224Z,8.50
2022-08-26T22:36:43.186Z,7.93
2022-08-26T22:39:13.224Z,8.77
2022-08-26T22:41:42.017Z,8.77
2022-08-26T22:44:11.176Z,8.70
2022-08-26T22:46:39.541Z,8.90
2022-08-26T22:49:09.733Z,10.48
2022-08-26T22:51:38.998Z,10.75
2022-08-26T22:54:07.562Z,10.30
2022-08-26T22:56:35.826Z,10.98
2022-08-26T22:59:04.140Z,11.60
2022-08-26T23:01:32.226Z,12.13
2022-08-26T23:04:00.157Z,12.27
2022-08-26T23:06:28.068Z,13.60
2022-08-26T23:08:57.367Z,13.93
2022-08-26T23:11:25.273Z,11.65
2022-08-26T23:13:53.149Z,12.68
2022-08-26T23:16:21.132Z,13.82
2022-08-26T23:18:49.895Z,13.27
2022-08-26T23:21:17.792Z,14.52
2022-08-26T23:23:45.950Z,15.52
2022-08-26T23:26:17.790Z,16.02
2022-08-26T23:28:45.834Z,15.95
2022-08-26T23:31:14.733Z,15.73
2022-08-26T23:34:05.623Z,16.17
2022-08-26T23:36:35.108Z,15.25
2022-08-26T23:39:03.576Z,16.77
2022-08-26T23:41:32.944Z,18.02
2022-08-26T23:44:03.516Z,20.92
2022-08-26T23:46:31.987Z,20.85
2022-08-26T23:49:00.097Z,19.77
2022-08-26T23:51:46.050Z,21.33
2022-08-26T23:54:14.865Z,21.35
2022-08-26T23:56:44.780Z,21.27
2022-08-26T23:59:13.222Z,19.50
